Time;durP1;ratioP1;P1;durP2;ratioP2;P2;SDS_P1;SDS_P2;PMS_P1;PMS_P2;Temp;Humidity;BMP_temperature;BMP_pressure;BME280_temperature;BME280_humidity;BME280_pressure;Samples;Min_cycle;Max_cycle;Signal;HPM_P1;HPM_P2
2022/05/03 00:00:18;;;;;;;13.18;4.75;;;;;;;3.88;54.65;99432.66;1667048;84;20942;-61
2022/05/03 00:03:13;;;;;;;9.85;5.10;;;;;;;3.86;54.84;99437.85;1669357;84;21542;-62
2022/05/03 00:05:51;;;;;;;7.70;5.00;;;;;;;3.83;54.88;99430.18;1673128;84;20981;-61
2022/05/03 00:08:46;;;;;;;8.83;5.50;;;;;;;3.79;55.01;99429.41;1669994;84;21554;-63
2022/05/03 00:11:33;;;;;;;12.55;4.85;;;;;;;3.78;55.21;99431.60;1651427;85;21107;-62
2022/05/03 00:14:11;;;;;;;7.08;5.50;;;;;;;3.76;55.25;99429.49;1677742;84;28854;-62
2022/05/03 00:16:38;;;;;;;8.78;4.60;;;;;;;3.74;55.33;99420.92;1641387;85;21033;-62
2022/05/03 00:19:06;;;;;;;12.05;4.83;;;;;;;3.75;55.61;99427.81;1670434;84;20989;-62
2022/05/03 00:21:35;;;;;;;7.12;4.40;;;;;;;3.76;55.64;99433.81;1643419;85;21577;-62
2022/05/03 00:24:04;;;;;;;6.47;4.60;;;;;;;3.78;55.78;99430.31;1679998;83;21149;-62
2022/05/03 00:26:32;;;;;;;6.25;4.67;;;;;;;3.77;55.81;99431.18;1668605;83;21692;-62
2022/05/03 00:28:58;;;;;;;;;;;;;;;3.76;55.92;99432.08;1643139;85;20993;-62
2022/05/03 00:31:27;;;;;;;9.35;5.45;;;;;;;3.75;56.19;99427.81;1681932;82;20124;-62
2022/05/03 00:33:57;;;;;;;7.92;4.90;;;;;;;3.71;56.16;99431.33;1697777;82;36290;-62
2022/05/03 00:36:25;;;;;;;6.78;5.05;;;;;;;3.66;56.22;99433.17;1699589;82;21127;-62
2022/05/03 00:38:52;;;;;;;7.85;4.53;;;;;;;3.63;56.33;99425.95;1723426;81;20972;-62
2022/05/03 00:41:41;;;;;;;6.50;4.72;;;;;;;3.58;56.47;99423.05;1724549;81;21461;-62
2022/05/03 00:45:01;;;;;;;7.00;4.75;;;;;;;3.57;56.59;99425.65;1735217;81;21459;-62
2022/05/03 00:48:04;;;;;;;5.50;4.80;;;;;;;3.53;56.63;99419.72;1726329;81;20991;-62
2022/05/03 00:50:47;;;;;;;7.33;5.20;;;;;;;3.52;56.83;99424.91;1711646;81;21097;-62
2022/05/03 00:53:33;;;;;;;8.35;5.92;;;;;;;3.51;56.97;99421.92;1703749;82;20954;-62
2022/05/03 00:56:08;;;;;;;22.65;17.27;;;;;;;3.49;56.97;99414.66;1730777;82;21021;-61
2022/05/03 00:58:52;;;;;;;9.03;5.85;;;;;;;3.50;57.11;99424.08;1717147;81;20987;-62
2022/05/03 01:01:32;;;;;;;6.72;5.37;;;;;;;3.49;57.28;99419.81;1717151;82;21514;-62
2022/05/03 01:04:47;;;;;;;7.87;5.35;;;;;;;3.47;57.31;99424.16;1712759;82;21770;-62
2022/05/03 01:07:34;;;;;;;5.37;4.63;;;;;;;3.44;57.40;99417.78;1716639;82;21589;-62
2022/05/03 01:10:27;;;;;;;8.48;5.60;;;;;;;3.41;57.65;99416.56;1707204;82;21495;-62
2022/05/03 01:13:01;;;;;;;9.23;5.75;;;;;;;3.35;57.77;99414.52;1713427;81;20907;-62
2022/05/03 01:15:41;;;;;;;8.85;4.92;;;;;;;3.33;57.87;99417.60;1730535;81;20954;-62
2022/05/03 01:18:21;;;;;;;7.08;5.33;;;;;;;3.34;58.05;99418.44;1718750;82;21152;-62
2022/05/03 01:21:20;;;;;;;11.08;5.17;;;;;;;3.33;58.10;99420.18;1720379;82;20963;-62
2022/05/03 01:24:04;;;;;;;7.80;4.85;;;;;;;3.35;58.20;99414.97;1728895;81;21614;-62
2022/05/03 01:27:00;;;;;;;10.68;5.50;;;;;;;3.34;58.28;99411.55;1722350;81;20948;-62
2022/05/03 01:29:34;;;;;;;7.75;4.97;;;;;;;3.35;58.28;99406.78;1689403;83;21534;-62
2022/05/03 01:32:05;;;;;;;7.10;4.17;;;;;;;3.37;58.46;99415.79;1712397;82;21860;-62
2022/05/03 01:34:33;;;;;;;8.78;5.00;;;;;;;3.36;58.52;99408.91;1715058;82;21583;-62
2022/05/03 01:37:33;;;;;;;9.80;5.12;;;;;;;3.34;58.65;99413.28;1710827;81;20966;-62
2022/05/03 01:40:29;;;;;;;8.73;5.72;;;;;;;3.31;58.79;99400.45;1721163;82;20965;-62
2022/05/03 01:43:22;;;;;;;6.37;4.73;;;;;;;3.30;58.89;99406.48;1708742;82;21073;-62
2022/05/03 01:46:18;;;;;;;5.40;4.90;;;;;;;3.27;59.25;99403.97;1719590;81;21113;-62
2022/05/03 01:52:25;;;;;;;6.47;4.95;;;;;;;3.22;59.32;99398.93;1720919;82;20913;-62
2022/05/03 01:55:09;;;;;;;7.12;5.40;;;;;;;3.23;59.52;99403.20;1726399;81;20967;-62
2022/05/03 01:58:01;;;;;;;8.00;5.12;;;;;;;3.25;59.55;99406.60;1719444;81;20925;-62
2022/05/03 02:00:28;;;;;;;5.72;5.00;;;;;;;3.28;59.73;99407.82;1723896;81;21043;-61
2022/05/03 02:03:27;;;;;;;8.25;5.47;;;;;;;3.30;59.76;99412.48;1727644;81;21024;-62
2022/05/03 02:06:14;;;;;;;7.92;5.03;;;;;;;3.34;59.95;99413.28;1641262;86;21556;-62
2022/05/03 02:09:06;;;;;;;5.92;4.55;;;;;;;3.40;59.97;99409.71;1658589;84;20990;-62
2022/05/03 02:11:46;;;;;;;8.98;5.65;;;;;;;3.43;60.07;99413.51;1659173;85;20934;-62
2022/05/03 02:14:45;;;;;;;8.90;5.00;;;;;;;3.46;60.21;99410.86;1665838;84;22177;-62
2022/05/03 02:17:52;;;;;;;6.75;5.25;;;;;;;3.47;60.30;99411.25;1661516;84;20938;-62
2022/05/03 02:20:55;;;;;;;7.22;4.87;;;;;;;3.48;60.36;99410.38;1665711;84;21001;-62
2022/05/03 02:23:49;;;;;;;10.53;5.45;;;;;;;3.48;60.49;99415.55;1662296;85;21141;-62
2022/05/03 02:26:40;;;;;;;9.63;5.15;;;;;;;3.51;60.76;99407.73;1661090;84;21556;-62
2022/05/03 02:29:17;;;;;;;9.23;4.70;;;;;;;3.56;60.77;99412.34;1663929;84;21088;-62
2022/05/03 02:31:55;;;;;;;11.73;5.85;;;;;;;3.62;60.78;99405.73;1659015;85;22304;-62
2022/05/03 02:34:42;;;;;;;5.25;4.58;;;;;;;3.70;60.91;99415.44;1659463;85;20982;-62
2022/05/03 02:37:16;;;;;;;10.63;4.70;;;;;;;3.77;60.99;99407.94;1661791;84;21710;-62
2022/05/03 02:40:03;;;;;;;6.58;4.67;;;;;;;3.84;61.08;99410.36;1658498;84;20998;-62
2022/05/03 02:42:31;;;;;;;6.72;5.12;;;;;;;3.88;61.06;99402.51;1698700;82;20980;-62
2022/05/03 02:45:01;;;;;;;8.58;4.90;;;;;;;3.92;61.19;99407.14;1726256;81;21493;-62
2022/05/03 02:47:38;;;;;;;7.10;5.10;;;;;;;3.94;61.35;99404.09;1728557;82;20934;-62
2022/05/03 02:50:21;;;;;;;6.72;4.85;;;;;;;3.94;61.36;99409.25;1728057;82;20921;-62
2022/05/03 02:53:18;;;;;;;12.65;6.08;;;;;;;3.95;61.51;99408.36;1719524;81;21056;-62
2022/05/03 02:55:52;;;;;;;7.10;4.90;;;;;;;3.95;61.60;99408.36;1737758;81;21100;-62
2022/05/03 02:58:52;;;;;;;10.28;5.53;;;;;;;3.97;61.68;99402.27;1737144;81;20947;-62
2022/05/03 03:01:48;;;;;;;11.08;5.50;;;;;;;4.00;61.77;99409.94;1723209;81;20918;-62
2022/05/03 03:04:47;;;;;;;7.80;5.17;;;;;;;4.08;61.87;99411.48;1714047;82;21436;-62
2022/05/03 03:07:19;;;;;;;12.73;4.90;;;;;;;4.13;61.95;99405.31;1704742;82;21146;-62
2022/05/03 03:09:56;;;;;;;9.70;5.62;;;;;;;4.17;61.98;99409.53;1708775;82;22009;-62
2022/05/03 03:12:32;;;;;;;;;;;;;;;4.19;62.21;99402.56;1696500;83;21015;-62
2022/05/03 03:15:07;;;;;;;10.98;5.50;;;;;;;4.24;62.45;99411.05;1703476;82;20144;-62
2022/05/03 03:17:38;;;;;;;6.65;5.58;;;;;;;4.28;62.37;99413.55;1722330;81;20931;-62
2022/05/03 03:20:15;;;;;;;7.47;5.17;;;;;;;4.30;62.35;99410.04;1726887;82;20950;-62
2022/05/03 03:22:45;;;;;;;10.68;5.12;;;;;;;4.36;62.55;99411.61;1724057;81;21124;-62
2022/05/03 03:25:20;;;;;;;7.10;5.58;;;;;;;4.39;62.58;99418.83;1717605;81;20864;-62
2022/05/03 03:27:49;;;;;;;7.85;5.25;;;;;;;4.44;62.58;99412.25;1684428;83;21530;-62
2022/05/03 03:30:17;;;;;;;10.38;5.10;;;;;;;4.50;62.70;99414.66;1712103;82;20889;-62
2022/05/03 03:32:50;;;;;;;;;;;;;;;4.59;62.69;99414.86;1693079;83;21034;-62
2022/05/03 03:35:19;;;;;;;7.58;4.90;;;;;;;4.71;62.88;99421.84;1718055;83;21095;-62
2022/05/03 03:37:48;;;;;;;9.05;5.40;;;;;;;4.86;62.98;99417.95;1717451;82;20918;-62
2022/05/03 03:40:17;;;;;;;7.58;5.05;;;;;;;5.14;63.01;99420.58;1686400;83;20978;-62
2022/05/03 03:42:46;;;;;;;7.70;4.70;;;;;;;5.52;63.01;99412.10;1689889;83;21047;-62
2022/05/03 03:45:15;;;;;;;8.20;4.45;;;;;;;5.57;62.79;99408.92;1710510;83;20999;-63
2022/05/03 03:47:44;;;;;;;6.08;4.10;;;;;;;5.59;62.78;99409.70;1701841;82;21033;-62
2022/05/03 03:50:11;;;;;;;12.93;4.75;;;;;;;5.68;62.79;99410.30;1714155;82;21512;-62
2022/05/03 03:52:44;;;;;;;8.95;5.05;;;;;;;5.68;62.83;99410.30;1729994;81;20933;-62
2022/05/03 03:55:12;;;;;;;7.65;4.37;;;;;;;5.72;62.92;99407.58;1723420;82;21024;-62
2022/05/03 03:57:40;;;;;;;6.80;5.22;;;;;;;5.78;62.97;99416.89;1719285;81;20980;-62
2022/05/03 04:00:10;;;;;;;5.95;3.65;;;;;;;5.78;62.88;99404.78;1722081;82;21882;-62
2022/05/03 04:02:38;;;;;;;6.80;4.65;;;;;;;5.77;63.02;99405.69;1725569;82;20902;-62
2022/05/03 04:05:06;;;;;;;5.25;3.98;;;;;;;5.82;63.09;99401.63;1731431;82;20970;-62
2022/05/03 04:07:33;;;;;;;5.83;4.28;;;;;;;5.92;63.27;99401.73;1714512;82;21464;-63
2022/05/03 04:10:00;;;;;;;5.85;4.60;;;;;;;6.07;63.16;99404.73;1700856;83;20899;-62
2022/05/03 04:12:29;;;;;;;9.87;5.40;;;;;;;6.12;63.04;99406.73;1730589;81;21142;-62
2022/05/03 04:14:56;;;;;;;745.80;450.18;;;;;;;6.13;63.01;99407.12;1729670;81;20953;-62
2022/05/03 04:17:22;;;;;;;97.07;49.27;;;;;;;6.12;63.11;99405.44;1734725;81;20957;-63
2022/05/03 04:19:49;;;;;;;22.60;11.10;;;;;;;6.15;63.21;99410.52;1729671;82;20974;-62
2022/05/03 04:22:31;;;;;;;17.98;8.33;;;;;;;6.16;63.15;99410.89;1707270;82;21033;-62
2022/05/03 04:24:59;;;;;;;7.85;4.87;;;;;;;6.12;63.11;99405.44;1717538;81;21037;-62
2022/05/03 04:27:27;;;;;;;7.35;4.55;;;;;;;6.08;63.21;99414.20;1723266;81;20997;-62
2022/05/03 04:29:56;;;;;;;5.58;4.35;;;;;;;6.12;63.28;99413.21;1724020;81;20963;-63
2022/05/03 04:32:23;;;;;;;5.72;3.98;;;;;;;6.16;63.37;99409.60;1728413;82;20965;-63
2022/05/03 04:34:50;;;;;;;5.83;4.30;;;;;;;6.25;63.42;99411.90;1727202;81;20924;-62
2022/05/03 04:37:17;;;;;;;6.83;4.37;;;;;;;6.41;63.55;99415.66;1720017;82;21966;-62
2022/05/03 04:39:44;;;;;;;5.78;4.78;;;;;;;6.70;63.66;99415.06;1717655;82;20905;-62
2022/05/03 04:42:12;;;;;;;8.43;3.67;;;;;;;6.90;63.52;99413.87;1715858;81;21011;-62
2022/05/03 04:44:39;;;;;;;8.63;4.78;;;;;;;7.07;63.45;99414.99;1717370;82;20964;-61
2022/05/03 04:47:06;;;;;;;5.73;3.63;;;;;;;7.12;63.42;99411.78;1734697;81;21554;-61
2022/05/03 04:49:35;;;;;;;6.78;3.75;;;;;;;7.15;63.36;99412.95;1723191;82;21076;-62
2022/05/03 04:52:02;;;;;;;4.40;3.90;;;;;;;7.21;63.39;99417.91;1722954;82;20890;-62
2022/05/03 04:54:29;;;;;;;6.70;3.92;;;;;;;7.24;63.50;99415.19;1727287;82;20957;-62
2022/05/03 04:57:03;;;;;;;6.30;4.28;;;;;;;7.26;63.50;99423.78;1719023;81;20978;-62
2022/05/03 04:59:31;;;;;;;8.13;4.42;;;;;;;7.35;63.58;99423.41;1717279;82;21506;-62
2022/05/03 05:01:58;;;;;;;6.65;3.77;;;;;;;7.43;63.60;99427.48;1712021;82;21859;-61
2022/05/03 05:04:25;;;;;;;5.95;4.10;;;;;;;7.46;63.61;99429.95;1706110;81;21029;-62
2022/05/03 05:06:51;;;;;;;10.30;6.17;;;;;;;7.43;63.51;99427.48;1739852;81;20979;-62
2022/05/03 05:09:20;;;;;;;7.37;4.95;;;;;;;7.44;63.58;99429.16;1718926;82;20969;-62
2022/05/03 05:11:47;;;;;;;7.10;5.90;;;;;;;7.44;63.62;99432.59;1727047;81;21003;-62
2022/05/03 05:14:14;;;;;;;7.67;5.25;;;;;;;7.48;63.64;99428.12;1706466;81;21273;-63
2022/05/03 05:16:42;;;;;;;6.87;4.35;;;;;;;7.52;63.65;99424.51;1705223;81;21025;-62
2022/05/03 05:19:09;;;;;;;7.78;4.20;;;;;;;7.54;63.70;99427.90;1717563;82;21474;-65
2022/05/03 05:21:36;;;;;;;6.50;4.33;;;;;;;7.48;63.58;99425.52;1716663;82;21427;-62
2022/05/03 05:24:10;;;;;;;5.97;3.85;;;;;;;7.47;63.65;99426.44;1707845;82;21021;-62
2022/05/03 05:26:33;;;;;;;7.15;4.33;;;;;;;7.45;63.68;99426.52;1720497;81;21241;-61
2022/05/03 05:29:00;;;;;;;8.33;3.67;;;;;;;7.48;63.81;99421.20;1720287;82;21050;-62
2022/05/03 05:31:26;;;;;;;5.40;3.70;;;;;;;7.57;63.93;99416.92;1710522;81;20951;-61
2022/05/03 05:33:53;;;;;;;4.90;4.33;;;;;;;7.69;63.94;99427.28;1730918;81;20979;-62
2022/05/03 05:36:19;;;;;;;5.63;3.90;;;;;;;7.81;64.04;99424.20;1741990;81;20957;-61
2022/05/03 05:38:46;;;;;;;7.60;4.23;;;;;;;7.94;64.08;99421.09;1722766;82;21113;-61
2022/05/03 05:41:14;;;;;;;7.58;4.62;;;;;;;8.04;64.07;99426.31;1726751;81;20964;-62
2022/05/03 05:43:42;;;;;;;6.58;4.45;;;;;;;8.07;64.02;99430.92;1712188;82;20954;-61
2022/05/03 05:46:11;;;;;;;11.57;4.95;;;;;;;8.12;64.08;99424.20;1725271;81;21436;-62
2022/05/03 05:48:39;;;;;;;6.03;4.70;;;;;;;8.07;64.02;99431.38;1721640;81;20979;-61
2022/05/03 05:51:06;;;;;;;6.22;4.80;;;;;;;8.06;64.15;99437.01;1722966;81;21906;-62
2022/05/03 05:53:33;;;;;;;7.17;4.75;;;;;;;8.04;64.25;99434.11;1737771;81;21027;-61
2022/05/03 05:56:07;;;;;;;5.58;4.25;;;;;;;8.07;64.45;99436.13;1727400;82;21018;-61
2022/05/03 05:58:34;;;;;;;6.08;4.25;;;;;;;8.18;64.42;99438.28;1738181;81;20970;-61
2022/05/03 06:01:00;;;;;;;6.97;4.20;;;;;;;8.27;64.49;99427.48;1722848;81;21021;-61
2022/05/03 06:03:34;;;;;;;8.25;4.58;;;;;;;8.41;64.50;99436.48;1726238;82;21914;-61
2022/05/03 06:05:57;;;;;;;6.72;4.80;;;;;;;8.42;64.73;99433.80;1730131;82;21435;-61
2022/05/03 06:08:24;;;;;;;7.67;4.63;;;;;;;8.50;64.68;99433.48;1730239;81;20923;-62
2022/05/03 06:10:50;;;;;;;6.87;4.33;;;;;;;8.59;64.80;99441.34;1724200;81;21490;-62
2022/05/03 06:13:17;;;;;;;7.03;4.37;;;;;;;8.78;65.00;99444.83;1715535;81;20961;-62
2022/05/03 06:15:44;;;;;;;6.33;3.95;;;;;;;9.01;65.02;99437.28;1708486;82;27276;-61
2022/05/03 06:18:13;;;;;;;8.88;4.60;;;;;;;9.22;64.99;99445.05;1692811;82;21520;-61
2022/05/03 06:20:39;;;;;;;4.67;3.72;;;;;;;9.44;64.84;99443.14;1726706;82;20950;-62
2022/05/03 06:23:06;;;;;;;5.87;3.67;;;;;;;9.64;65.00;99446.94;1738200;81;20938;-62
2022/05/03 06:25:33;;;;;;;7.60;4.45;;;;;;;9.89;65.01;99443.16;1730498;81;20908;-62
2022/05/03 06:27:59;;;;;;;5.43;4.40;;;;;;;10.11;64.96;99448.59;1728121;81;21086;-62
2022/05/03 06:30:26;;;;;;;5.37;3.60;;;;;;;10.21;64.76;99447.23;1714066;81;20932;-62
2022/05/03 06:32:54;;;;;;;7.33;4.40;;;;;;;10.38;64.92;99451.16;1730253;81;20982;-65
2022/05/03 06:35:21;;;;;;;7.67;3.80;;;;;;;10.50;64.82;99453.17;1728573;81;20936;-62
2022/05/03 06:37:47;;;;;;;4.80;3.60;;;;;;;10.59;64.71;99452.31;1692259;83;21017;-62
2022/05/03 06:40:14;;;;;;;7.15;4.92;;;;;;;10.61;64.63;99447.83;1712404;82;21947;-62
2022/05/03 06:42:41;;;;;;;7.03;4.00;;;;;;;10.76;64.84;99452.27;1711797;81;21547;-61
2022/05/03 06:45:10;;;;;;;5.30;4.25;;;;;;;10.95;64.82;99455.61;1720986;82;20973;-62
2022/05/03 06:47:39;;;;;;;5.05;4.30;;;;;;;11.03;64.60;99455.64;1732602;81;20983;-61
2022/05/03 06:50:08;;;;;;;5.30;4.55;;;;;;;11.16;64.68;99456.22;1700536;82;21510;-62
2022/05/03 06:52:35;;;;;;;5.08;3.98;;;;;;;11.28;64.62;99459.92;1710853;82;21084;-62
2022/05/03 06:55:03;;;;;;;7.83;4.80;;;;;;;11.50;64.74;99466.61;1713575;81;20987;-62
2022/05/03 06:57:31;;;;;;;6.72;4.47;;;;;;;11.69;64.53;99459.43;1728058;81;20873;-62
2022/05/03 07:00:01;;;;;;;8.00;4.87;;;;;;;12.01;64.66;99462.02;1688932;82;21017;-62
2022/05/03 07:02:32;;;;;;;5.90;4.35;;;;;;;12.22;64.53;99463.41;1713914;82;20980;-62
2022/05/03 07:05:00;;;;;;;6.08;4.80;;;;;;;12.33;64.24;99467.19;1704210;82;21793;-63
2022/05/03 07:07:28;;;;;;;6.22;4.47;;;;;;;12.28;63.96;99472.20;1721248;81;21460;-62
2022/05/03 07:09:56;;;;;;;7.35;5.10;;;;;;;12.22;64.04;99476.50;1728939;81;20927;-62
2022/05/03 07:12:23;;;;;;;11.25;4.87;;;;;;;12.19;64.11;99476.67;1694328;82;20900;-62
2022/05/03 07:14:50;;;;;;;5.33;4.10;;;;;;;12.26;64.21;99479.30;1698027;83;20954;-62
2022/05/03 07:22:50;;;;;;;;;;;;;;;12.71;63.67;99473.59;1719444;81;20999;-63
2022/05/03 07:25:17;;;;;;;6.08;4.67;;;;;;;12.88;63.94;99476.97;1685774;83;20115;-63
2022/05/03 07:27:48;;;;;;;5.67;4.78;;;;;;;13.14;63.77;99484.10;1711190;82;21515;-63
2022/05/03 07:30:16;;;;;;;5.67;4.12;;;;;;;13.03;62.36;99486.54;1720565;82;21072;-63
2022/05/03 07:32:45;;;;;;;5.15;4.30;;;;;;;12.49;62.39;99494.12;1708404;82;21002;-63
2022/05/03 07:35:14;;;;;;;6.17;4.37;;;;;;;11.96;62.55;99491.52;1738430;81;20927;-62
2022/05/03 07:37:41;;;;;;;4.90;4.17;;;;;;;11.85;63.59;99489.06;1699803;82;20916;-62
2022/05/03 07:40:14;;;;;;;5.65;5.03;;;;;;;12.21;63.53;99490.53;1713092;82;21586;-62
2022/05/03 07:42:39;;;;;;;7.03;4.78;;;;;;;12.67;64.27;99485.20;1725681;82;21187;-63
2022/05/03 07:45:07;;;;;;;7.22;4.53;;;;;;;13.02;62.65;99497.94;1735368;81;20970;-63
2022/05/03 07:47:36;;;;;;;7.20;4.45;;;;;;;12.60;62.32;99504.81;1726601;81;21073;-63
2022/05/03 07:50:05;;;;;;;6.55;4.70;;;;;;;12.15;62.34;99498.70;1714387;82;21004;-63
2022/05/03 07:52:36;;;;;;;6.67;5.08;;;;;;;11.70;62.88;99519.95;1684214;83;20997;-63
2022/05/03 07:55:02;;;;;;;6.47;4.85;;;;;;;11.45;63.02;99511.77;1687657;83;21037;-63
2022/05/03 07:57:29;;;;;;;;;;;;;;;11.34;63.31;99513.64;1707067;83;21001;-62
2022/05/03 07:59:56;;;;;;;;;;;;;;;11.24;63.49;99518.53;1704342;82;20165;-62
2022/05/03 08:02:24;;;;;;;6.30;5.00;;;;;;;11.14;64.67;99522.55;1722043;82;20110;-62
2022/05/03 08:04:52;;;;;;;7.05;5.47;;;;;;;10.83;64.26;99518.92;1713343;82;21057;-62
2022/05/03 08:07:19;;;;;;;8.35;4.95;;;;;;;10.82;64.67;99532.07;1728392;81;21758;-63
2022/05/03 08:09:48;;;;;;;6.10;4.78;;;;;;;10.92;64.77;99534.14;1699147;82;20902;-62
2022/05/03 08:12:19;;;;;;;6.58;5.03;;;;;;;10.77;64.72;99540.13;1710001;82;20881;-62
2022/05/03 08:14:48;;;;;;;6.17;4.70;;;;;;;10.66;65.08;99542.44;1716534;82;20949;-62
2022/05/03 08:17:16;;;;;;;6.95;5.35;;;;;;;10.59;65.22;99548.91;1715335;82;21634;-62
2022/05/03 08:19:43;;;;;;;6.20;4.80;;;;;;;10.51;65.30;99550.13;1712985;81;21264;-62
2022/05/03 08:22:10;;;;;;;6.72;4.75;;;;;;;10.51;65.67;99550.13;1707646;81;21717;-62
2022/05/03 08:24:41;;;;;;;6.28;4.90;;;;;;;10.56;66.30;99552.95;1715690;82;20999;-63
2022/05/03 08:27:09;;;;;;;5.22;4.65;;;;;;;10.49;65.91;99550.66;1715246;82;20934;-62
2022/05/03 08:29:37;;;;;;;8.38;4.67;;;;;;;10.50;66.30;99564.11;1690439;82;20922;-62
2022/05/03 08:32:08;;;;;;;6.95;3.95;;;;;;;10.48;65.99;99561.19;1716645;81;20901;-62
2022/05/03 08:34:35;;;;;;;5.40;4.17;;;;;;;10.53;66.28;99558.73;1712616;82;20909;-61
2022/05/03 08:42:36;;;;;;;5.50;4.30;;;;;;;10.67;66.36;99566.31;1702438;82;20919;-64
2022/05/03 08:45:05;;;;;;;6.30;4.37;;;;;;;10.63;67.30;99576.55;1724144;81;21149;-63
2022/05/03 08:47:34;;;;;;;4.80;4.05;;;;;;;10.64;66.89;99567.78;1723632;81;21052;-62
2022/05/03 08:50:09;;;;;;;6.97;5.10;;;;;;;10.87;66.95;99568.79;1680627;83;21032;-63
2022/05/03 08:52:54;;;;;;;8.03;5.50;;;;;;;11.28;67.08;99563.17;1696695;82;20972;-63
2022/05/03 08:55:22;;;;;;;7.33;4.95;;;;;;;11.62;66.70;99565.29;1721138;81;20918;-63
2022/05/03 08:57:56;;;;;;;7.40;5.10;;;;;;;11.80;66.27;99560.38;1686751;83;21213;-63
2022/05/03 09:00:24;;;;;;;6.53;5.17;;;;;;;11.99;66.62;99565.95;1732690;81;21109;-64
2022/05/03 09:02:54;;;;;;;6.60;5.37;;;;;;;12.08;66.09;99564.12;1715997;82;21006;-62
2022/05/03 09:05:22;;;;;;;7.20;4.92;;;;;;;12.12;66.29;99573.47;1679714;82;21115;-64
2022/05/03 09:08:04;;;;;;;9.33;5.42;;;;;;;11.99;66.12;99572.49;1719653;81;21600;-65
2022/05/03 09:10:37;;;;;;;15.05;5.35;;;;;;;11.69;66.19;99578.90;1716621;81;21113;-64
2022/05/03 09:13:18;;;;;;;5.65;5.08;;;;;;;11.32;66.37;99586.93;1692530;82;20975;-65
2022/05/03 09:15:50;;;;;;;7.95;6.00;;;;;;;11.09;67.13;99588.56;1703674;83;21034;-65
2022/05/03 09:18:26;;;;;;;6.25;5.62;;;;;;;10.74;67.48;99597.74;1727050;81;21174;-64
2022/05/03 09:23:53;;;;;;;9.30;5.95;;;;;;;10.43;68.05;99596.64;1728164;81;21910;-63
2022/05/03 09:26:26;;;;;;;7.80;6.45;;;;;;;10.44;69.12;99600.09;1716491;81;20980;-64
2022/05/03 09:29:09;;;;;;;9.05;7.10;;;;;;;10.32;68.15;99598.09;1709030;81;21003;-64
2022/05/03 09:31:50;;;;;;;7.30;6.28;;;;;;;10.21;68.61;99602.48;1698966;82;20942;-64
2022/05/03 09:34:27;;;;;;;10.78;7.95;;;;;;;10.05;68.50;99601.91;1725437;81;20968;-64
2022/05/03 09:36:58;;;;;;;9.68;6.17;;;;;;;10.00;68.72;99602.58;1727692;81;21568;-63
2022/05/03 09:39:38;;;;;;;11.57;7.20;;;;;;;9.90;69.12;99602.61;1716446;81;21106;-63
2022/05/03 09:42:17;;;;;;;10.28;6.80;;;;;;;9.87;68.93;99605.36;1721347;81;21418;-64
2022/05/03 09:44:58;;;;;;;7.90;5.95;;;;;;;9.86;69.09;99607.59;1726984;81;20976;-64
2022/05/03 09:47:33;;;;;;;8.88;5.85;;;;;;;9.83;69.16;99609.02;1729568;81;21636;-63
2022/05/03 09:50:00;;;;;;;9.38;6.30;;;;;;;9.69;69.39;99612.70;1727746;81;21092;-65
2022/05/03 09:52:35;;;;;;;12.10;8.55;;;;;;;9.64;69.64;99615.08;1727010;81;20974;-64
2022/05/03 09:55:13;;;;;;;10.53;7.65;;;;;;;9.57;69.99;99611.05;1691383;82;21478;-64
2022/05/03 09:57:43;;;;;;;7.62;6.35;;;;;;;9.53;70.60;99616.02;1720377;81;20993;-67
2022/05/03 10:00:13;;;;;;;6.95;5.70;;;;;;;9.46;70.56;99614.59;1723623;81;21919;-64
2022/05/03 10:02:43;;;;;;;8.58;6.90;;;;;;;9.42;70.74;99619.56;1712207;81;21988;-64
2022/05/03 10:05:22;;;;;;;9.40;7.45;;;;;;;9.19;71.81;99614.90;1735189;81;20931;-65
2022/05/03 10:07:52;;;;;;;8.13;7.03;;;;;;;9.19;71.81;99614.90;1724122;81;20954;-64
2022/05/03 10:10:21;;;;;;;9.23;7.45;;;;;;;9.20;71.60;99630.06;1693964;83;21471;-64
2022/05/03 10:12:50;;;;;;;10.23;7.08;;;;;;;9.19;72.63;99631.83;1723111;81;20965;-64
2022/05/03 10:21:03;;;;;;;9.05;7.58;;;;;;;9.75;72.20;99606.78;1708897;82;21930;-65
2022/05/03 10:23:37;;;;;;;7.00;5.78;;;;;;;10.01;72.30;99626.43;1707816;82;21449;-64
2022/05/03 10:26:14;;;;;;;5.87;5.30;;;;;;;10.01;72.30;99626.43;1725986;81;20922;-64
2022/05/03 10:29:09;;;;;;;6.10;5.17;;;;;;;10.25;72.39;99628.80;1710234;82;21066;-65
2022/05/03 10:32:08;;;;;;;5.80;5.30;;;;;;;10.61;72.60;99633.20;1709423;82;21528;-67
2022/05/03 10:34:53;;;;;;;7.87;5.50;;;;;;;10.66;71.95;99631.22;1671318;84;21193;-63
2022/05/03 10:37:33;;;;;;;5.40;4.90;;;;;;;10.92;72.39;99625.56;1644063;85;20926;-64
2022/05/03 10:40:03;;;;;;;7.10;4.92;;;;;;;11.15;72.08;99623.55;1667264;84;20938;-64
2022/05/03 10:42:31;;;;;;;5.37;4.87;;;;;;;11.26;71.69;99621.23;1666727;84;21444;-64
2022/05/03 10:45:10;;;;;;;4.40;4.00;;;;;;;11.37;71.94;99629.37;1659838;84;21031;-63
2022/05/03 10:47:54;;;;;;;5.95;4.55;;;;;;;11.70;72.07;99629.80;1661489;84;21525;-63
2022/05/03 10:50:26;;;;;;;4.22;3.83;;;;;;;11.79;72.00;99629.33;1665863;82;21558;-66
2022/05/03 10:53:07;;;;;;;8.10;6.28;;;;;;;12.13;71.96;99623.60;1645325;85;21039;-64
2022/05/03 10:55:40;;;;;;;12.90;8.00;;;;;;;11.95;71.02;99624.59;1655923;85;21181;-68
2022/05/03 10:58:29;;;;;;;6.90;5.00;;;;;;;11.79;71.37;99625.41;1682742;83;20948;-64
2022/05/03 11:01:19;;;;;;;4.90;4.42;;;;;;;11.91;71.53;99623.09;1675194;83;20974;-65
2022/05/03 11:03:57;;;;;;;6.03;4.47;;;;;;;12.09;71.85;99619.45;1648964;84;22108;-62
2022/05/03 11:06:30;;;;;;;5.97;5.37;;;;;;;12.49;71.83;99623.76;1650055;84;20986;-63
2022/05/03 11:09:08;;;;;;;6.45;5.83;;;;;;;12.66;71.01;99614.50;1679363;84;21713;-63
2022/05/03 11:11:43;;;;;;;5.83;5.22;;;;;;;12.45;70.54;99622.26;1679547;82;21464;-63
2022/05/03 11:14:22;;;;;;;7.28;4.90;;;;;;;12.38;70.84;99619.59;1728873;81;21006;-62
2022/05/03 11:17:11;;;;;;;5.85;5.28;;;;;;;12.23;70.66;99622.14;1726750;81;21473;-63
2022/05/03 11:19:52;;;;;;;6.33;5.72;;;;;;;12.19;71.05;99623.25;1717726;82;20954;-62
2022/05/03 11:22:35;;;;;;;5.20;4.70;;;;;;;12.45;71.44;99620.95;1705235;82;21214;-62
2022/05/03 11:25:07;;;;;;;5.90;5.30;;;;;;;12.73;71.27;99621.05;1736737;81;20939;-63
2022/05/03 11:27:34;;;;;;;5.47;4.90;;;;;;;12.93;71.43;99632.16;1733895;81;21461;-62
2022/05/03 11:30:04;;;;;;;;;;;;;;;13.05;70.78;99635.39;1715026;81;20951;-62
2022/05/03 11:32:40;;;;;;;6.67;4.67;;;;;;;12.90;69.33;99633.17;1718144;81;20092;-63
2022/05/03 11:35:13;;;;;;;5.33;4.83;;;;;;;12.62;69.59;99633.92;1725868;81;22000;-63
2022/05/03 11:37:47;;;;;;;5.28;4.78;;;;;;;12.12;69.73;99632.36;1726583;81;20962;-63
2022/05/03 11:40:15;;;;;;;5.20;4.58;;;;;;;11.95;70.47;99637.67;1721312;81;21002;-63
2022/05/03 11:42:44;;;;;;;5.35;4.58;;;;;;;11.96;70.59;99632.38;1727157;82;21109;-63
2022/05/03 11:45:13;;;;;;;5.92;4.85;;;;;;;12.03;70.79;99636.80;1718367;81;20997;-63
2022/05/03 11:47:45;;;;;;;5.83;5.15;;;;;;;12.43;71.37;99635.89;1729177;81;21065;-62
2022/05/03 11:55:59;;;;;;;4.80;4.40;;;;;;;13.19;70.58;99641.97;1711318;82;21044;-62
2022/05/03 11:58:27;;;;;;;7.62;5.37;;;;;;;13.11;69.20;99642.88;1707488;82;21523;-63
2022/05/03 12:00:56;;;;;;;4.75;4.30;;;;;;;12.74;69.67;99646.78;1720219;82;21117;-62
2022/05/03 12:03:23;;;;;;;6.05;5.30;;;;;;;12.67;69.28;99651.53;1705274;81;20965;-63
2022/05/03 12:06:01;;;;;;;6.45;5.42;;;;;;;12.25;68.92;99654.32;1707586;81;20944;-63
2022/05/03 12:08:29;;;;;;;5.72;4.95;;;;;;;11.81;69.41;99654.08;1714267;81;21034;-62
2022/05/03 12:10:56;;;;;;;6.53;5.17;;;;;;;11.53;69.79;99665.99;1736886;81;21040;-62
2022/05/03 12:13:26;;;;;;;;;;;;;;;11.21;70.07;99659.83;1725821;81;21409;-63
2022/05/03 12:16:06;;;;;;;7.22;4.72;;;;;;;11.03;70.53;99660.73;1720545;82;20085;-63
2022/05/03 12:18:35;;;;;;;5.70;4.92;;;;;;;10.98;70.46;99657.91;1701137;83;20915;-63
2022/05/03 12:21:18;;;;;;;4.50;4.08;;;;;;;11.11;70.73;99650.75;1720830;81;20979;-64
2022/05/03 12:23:50;;;;;;;5.08;3.58;;;;;;;11.26;70.77;99647.38;1711582;81;21064;-63
2022/05/03 12:26:27;;;;;;;3.47;3.17;;;;;;;11.37;70.57;99652.89;1720882;81;21536;-64
2022/05/03 12:28:57;;;;;;;3.35;2.87;;;;;;;11.47;70.68;99654.55;1715057;81;21561;-64
2022/05/03 12:31:38;;;;;;;3.00;2.67;;;;;;;11.57;70.41;99648.40;1702129;82;20969;-63
2022/05/03 12:34:15;;;;;;;2.47;2.25;;;;;;;11.71;70.46;99649.81;1715194;81;20921;-64
2022/05/03 12:36:46;;;;;;;1.85;1.50;;;;;;;11.80;70.03;99640.16;1685217;83;20972;-64
2022/05/03 12:39:24;;;;;;;1.77;1.50;;;;;;;11.81;69.81;99645.77;1725243;81;21103;-64